Glenville, WV

1:17 PM EST on March 06, 2015 (GMT -0500)
Buckhannon | Change Station
CLOSE
Current Station
Airport
Location: Buckhannon,
Elevation: 1634 ft
Nearby Weather Stations

Elev 1634 ft 39.00 °N, 80.27 °W | Updated 22 minutes ago

Clear
Clear
19 °F
Feels Like 19 °F
N
0
Wind Variable Wind from North

Today
High -- | Low -- °F
--% Chance of Precip.
Yesterday
High -- | Low -- °F
Precip. -- in
6:48 AM 6:21 PM
Full, 99% visible
Pressure 30.43 in
Visibility 10.0 miles
Clouds Clear
Dew Point 10 °F
Humidity 68%
Rainfall 0.00 in
Snow Depth Not available.
UV 7 out of 12
Pollen 1.80 out of 12
Air Quality Not available.
Flu Activity Not available.
METAR KW22 061755Z AUTO 00000KT 10SM CLR M07/M12 A3043 RMK AO2

More Conditions Fewer Conditions

Pressure 30.43 in
Visibility 10.0 miles
Clouds Clear
Dew Point 10 °F
Humidity 68%
Rainfall 0.00 in
Snow Depth Not available.
UV 7 out of 12
Pollen 1.80 out of 12
Air Quality Not available.
Flu Activity Not available.
METAR KW22 061755Z AUTO 00000KT 10SM CLR M07/M12 A3043 RMK AO2

More Conditions Fewer Conditions

10-Day Weather Forecast

Almanac

Astronomy

Mar. 06, 2015 Rise Set
Actual Time
Civil Twilight
Nautical Twilight
Astronomical Twilight
Moon
Length of Visible Light
Length of Day
Tomorrow will be .
, % of the Moon is Illuminated

Today's Extremes

State Highs State Lows

Community

WunderPhotos

Upload Photos

1,803,357 photos uploaded!

WunderBlogs® & News

Nearby

Air Quality

  Air Quality AQ Index Pollutant
Not available.

Snow Depth

Station Depth Elevation

Earthquake Activity

City Distance Mag. Time & Date
Minimum magnitude displayed is 2.5.

Coastal Water Temperatures

Place Temperature

Nearby Weather Stations